createdAt,value
2019-03-30T00:01:06.106Z,99.90
2019-03-30T00:03:34.518Z,99.90
2019-03-30T00:06:02.923Z,99.90
2019-03-30T00:08:31.330Z,99.90
2019-03-30T00:11:00.051Z,99.90
2019-03-30T00:13:28.450Z,99.90
2019-03-30T00:15:56.847Z,99.90
2019-03-30T00:18:25.297Z,99.90
2019-03-30T00:20:53.695Z,99.90
2019-03-30T00:23:22.133Z,99.90
2019-03-30T00:25:50.862Z,99.90
2019-03-30T00:28:19.266Z,99.90
2019-03-30T00:30:47.671Z,99.90
2019-03-30T00:33:16.078Z,99.90
2019-03-30T00:35:44.478Z,99.90
2019-03-30T00:38:12.890Z,99.90
2019-03-30T00:40:41.307Z,99.90
2019-03-30T00:43:09.706Z,99.90
2019-03-30T00:45:38.102Z,99.90
2019-03-30T00:48:06.518Z,99.90
2019-03-30T00:50:34.919Z,99.90
2019-03-30T00:53:03.325Z,99.90
2019-03-30T00:55:31.738Z,99.90
2019-03-30T00:58:00.147Z,99.90
2019-03-30T01:00:28.546Z,99.90
2019-03-30T01:02:57.030Z,99.90
2019-03-30T01:05:25.430Z,99.90
2019-03-30T01:07:53.836Z,99.90
2019-03-30T01:10:22.546Z,99.90
2019-03-30T01:12:50.947Z,99.90
2019-03-30T01:15:19.350Z,99.90
2019-03-30T01:17:47.833Z,99.90
2019-03-30T01:20:16.230Z,99.90
2019-03-30T01:22:44.639Z,99.90
2019-03-30T01:25:13.042Z,99.90
2019-03-30T01:27:41.526Z,99.90
2019-03-30T01:30:22.513Z,99.90
2019-03-30T01:32:41.201Z,99.90
2019-03-30T01:35:09.824Z,99.90
2019-03-30T01:37:38.267Z,99.90
2019-03-30T01:40:09.795Z,99.90
2019-03-30T01:42:38.206Z,99.90
2019-03-30T01:45:08.118Z,99.90
2019-03-30T01:47:36.522Z,99.90
2019-03-30T01:50:17.353Z,99.90
2019-03-30T01:52:39.386Z,99.90
2019-03-30T01:55:08.618Z,99.90
2019-03-30T01:57:37.062Z,99.90
2019-03-30T02:00:09.690Z,99.90
2019-03-30T02:02:38.090Z,99.90
2019-03-30T02:05:08.114Z,99.90
2019-03-30T02:07:36.510Z,99.90
2019-03-30T02:10:06.642Z,99.90
2019-03-30T02:12:35.130Z,99.90
2019-03-30T02:15:04.871Z,99.90
2019-03-30T02:17:33.273Z,99.90
2019-03-30T02:20:01.931Z,99.90
2019-03-30T02:22:30.330Z,99.90
2019-03-30T02:24:58.738Z,99.90
2019-03-30T02:27:27.229Z,99.90
2019-03-30T02:29:55.703Z,99.90
2019-03-30T02:32:24.110Z,99.90
2019-03-30T02:34:52.535Z,99.90
2019-03-30T02:37:20.937Z,99.90
2019-03-30T02:39:49.339Z,99.90
2019-03-30T02:42:17.754Z,99.90
2019-03-30T02:44:46.459Z,99.90
2019-03-30T02:47:14.855Z,99.90
2019-03-30T02:49:43.302Z,99.90
2019-03-30T02:52:11.700Z,99.90
2019-03-30T02:54:40.102Z,99.90
2019-03-30T02:57:08.522Z,99.90
2019-03-30T02:59:36.923Z,99.90
2019-03-30T03:02:05.330Z,99.90
2019-03-30T03:04:33.752Z,99.90
2019-03-30T03:07:02.162Z,99.90
2019-03-30T03:09:30.565Z,99.90
2019-03-30T03:11:59.348Z,99.90
2019-03-30T03:14:27.746Z,99.90
2019-03-30T03:16:56.155Z,99.90
2019-03-30T03:19:24.584Z,99.90
2019-03-30T03:21:52.999Z,99.90
2019-03-30T03:24:21.396Z,99.90
2019-03-30T03:26:49.890Z,99.90
2019-03-30T03:29:18.279Z,99.90
2019-03-30T03:31:46.749Z,99.90
2019-03-30T03:34:15.187Z,99.90
2019-03-30T03:36:43.587Z,99.90
2019-03-30T03:41:40.081Z,99.90
2019-03-30T03:44:08.479Z,99.90
2019-03-30T03:46:37.248Z,99.90
2019-03-30T03:49:05.665Z,99.90
2019-03-30T03:51:34.516Z,99.90
2019-03-30T03:54:03.639Z,99.90
2019-03-30T03:56:34.695Z,99.90
2019-03-30T03:59:04.945Z,99.90
2019-03-30T04:01:35.219Z,99.90
2019-03-30T04:04:05.464Z,99.90
2019-03-30T04:06:33.993Z,99.90
2019-03-30T04:09:04.426Z,99.90
2019-03-30T04:11:32.913Z,99.90
2019-03-30T04:14:01.471Z,99.90
2019-03-30T04:16:30.123Z,99.90
2019-03-30T04:18:58.564Z,99.90
2019-03-30T04:21:42.756Z,99.90
2019-03-30T04:23:57.083Z,99.90
2019-03-30T04:26:25.506Z,99.90
2019-03-30T04:28:53.910Z,99.90
2019-03-30T04:31:22.303Z,99.90
2019-03-30T04:33:50.711Z,99.90
2019-03-30T04:36:19.109Z,99.90
2019-03-30T04:38:47.510Z,99.90
2019-03-30T04:41:15.926Z,99.90
2019-03-30T04:43:44.324Z,99.90
2019-03-30T04:46:12.722Z,99.90
2019-03-30T04:48:41.363Z,99.90
2019-03-30T04:51:09.762Z,99.90
2019-03-30T04:53:38.164Z,99.90
2019-03-30T04:56:06.610Z,99.90
2019-03-30T04:58:35.002Z,99.90
2019-03-30T05:01:03.402Z,99.90
2019-03-30T05:03:31.816Z,99.90
2019-03-30T05:06:00.214Z,99.90
2019-03-30T05:08:28.611Z,99.90
2019-03-30T05:10:57.018Z,99.90
2019-03-30T05:13:25.410Z,99.90
2019-03-30T05:15:53.823Z,99.90
2019-03-30T05:18:22.218Z,99.90
2019-03-30T05:20:50.614Z,99.90
2019-03-30T05:23:19.019Z,99.90
2019-03-30T05:25:47.423Z,99.90
2019-03-30T05:28:15.856Z,99.90
2019-03-30T05:30:44.290Z,99.90
2019-03-30T05:33:12.697Z,99.90
2019-03-30T05:35:41.091Z,99.90
2019-03-30T05:38:09.484Z,99.90
2019-03-30T05:40:37.912Z,99.90
2019-03-30T05:43:06.328Z,99.90
2019-03-30T05:45:34.722Z,99.90
2019-03-30T05:48:03.120Z,99.90
2019-03-30T05:50:31.534Z,99.90
2019-03-30T05:52:59.940Z,99.90
2019-03-30T05:55:28.334Z,99.90
2019-03-30T05:57:56.747Z,99.90
2019-03-30T06:00:25.816Z,99.90
2019-03-30T06:02:54.214Z,99.90
2019-03-30T06:05:22.629Z,99.90
2019-03-30T06:07:51.022Z,99.90
2019-03-30T06:10:19.422Z,99.90
2019-03-30T06:12:47.838Z,99.90
2019-03-30T06:15:16.234Z,99.90
2019-03-30T06:17:44.631Z,99.90
2019-03-30T06:20:13.134Z,99.90
2019-03-30T06:22:41.551Z,99.90
2019-03-30T06:25:10.015Z,99.90
2019-03-30T06:27:38.430Z,99.90
2019-03-30T06:30:21.259Z,99.90
2019-03-30T06:32:49.677Z,99.90
2019-03-30T06:35:18.324Z,99.90
2019-03-30T06:37:46.690Z,99.90
2019-03-30T06:40:15.253Z,99.90
2019-03-30T06:42:43.718Z,99.90
2019-03-30T06:45:12.271Z,99.90
2019-03-30T06:47:40.687Z,99.90
2019-03-30T06:50:09.631Z,99.90
2019-03-30T06:52:41.280Z,99.90
2019-03-30T06:55:10.415Z,99.90
2019-03-30T06:57:38.812Z,99.90
2019-03-30T07:00:08.042Z,99.90
2019-03-30T07:02:37.673Z,99.90
2019-03-30T07:05:07.835Z,99.90
2019-03-30T07:07:37.774Z,99.90
2019-03-30T07:10:06.415Z,99.90
2019-03-30T07:12:37.918Z,99.90
2019-03-30T07:15:06.470Z,99.90
2019-03-30T07:17:37.934Z,99.90
2019-03-30T07:20:09.694Z,99.90
2019-03-30T07:22:38.092Z,99.70
2019-03-30T07:27:34.897Z,98.70
2019-03-30T07:30:04.366Z,98.80
2019-03-30T07:35:01.476Z,97.00
2019-03-30T07:37:29.884Z,96.50
2019-03-30T07:39:58.284Z,96.20
2019-03-30T07:42:26.700Z,96.00
2019-03-30T07:44:55.131Z,95.20
2019-03-30T07:47:23.532Z,94.70
2019-03-30T07:49:51.950Z,93.40
2019-03-30T07:52:20.359Z,92.70
2019-03-30T07:54:48.760Z,92.20
2019-03-30T07:57:17.609Z,92.10
2019-03-30T07:59:46.155Z,93.00
2019-03-30T08:02:14.563Z,92.50
2019-03-30T08:04:42.990Z,91.30
2019-03-30T08:07:11.407Z,91.70
2019-03-30T08:09:39.817Z,90.20
2019-03-30T08:12:08.222Z,90.10
2019-03-30T08:14:36.650Z,87.80
2019-03-30T08:17:05.071Z,85.70
2019-03-30T08:19:33.463Z,86.80
2019-03-30T08:22:01.870Z,84.90
2019-03-30T08:24:30.310Z,83.60
2019-03-30T08:26:58.766Z,82.70
2019-03-30T08:29:27.170Z,81.50
2019-03-30T08:31:55.578Z,81.60
2019-03-30T08:34:24.024Z,80.20
2019-03-30T08:36:52.428Z,78.20
2019-03-30T08:39:20.838Z,77.70
2019-03-30T08:41:49.256Z,76.60
2019-03-30T08:44:17.666Z,75.40
2019-03-30T08:46:46.074Z,75.90
2019-03-30T08:49:14.494Z,74.30
2019-03-30T08:51:42.947Z,74.30
2019-03-30T08:54:11.370Z,74.20
2019-03-30T08:56:39.954Z,72.80
2019-03-30T08:59:08.365Z,72.30
2019-03-30T09:01:36.760Z,71.60
2019-03-30T09:04:05.243Z,71.30
2019-03-30T09:06:33.650Z,68.80
2019-03-30T09:09:02.062Z,70.00
2019-03-30T09:11:30.458Z,68.30
2019-03-30T09:13:58.890Z,70.00
2019-03-30T09:16:27.314Z,66.90
2019-03-30T09:18:55.698Z,68.90
2019-03-30T09:21:24.123Z,65.20
2019-03-30T09:23:52.525Z,62.20
2019-03-30T09:26:20.922Z,62.20
2019-03-30T09:28:49.339Z,59.20
2019-03-30T09:31:17.750Z,57.60
2019-03-30T09:33:46.151Z,56.00
2019-03-30T09:36:14.574Z,55.40
2019-03-30T09:38:42.986Z,54.90
2019-03-30T09:41:11.390Z,54.10
2019-03-30T09:43:39.820Z,53.70
2019-03-30T09:46:08.224Z,53.00
2019-03-30T09:48:36.626Z,53.00
2019-03-30T09:51:05.284Z,52.30
2019-03-30T09:53:33.684Z,51.90
2019-03-30T09:56:02.102Z,51.40
2019-03-30T09:58:30.498Z,51.40
2019-03-30T10:00:59.166Z,50.80
2019-03-30T10:03:27.571Z,49.70
2019-03-30T10:05:55.991Z,48.10
2019-03-30T10:08:24.402Z,42.70
2019-03-30T10:10:52.794Z,42.60
2019-03-30T10:13:21.217Z,40.00
2019-03-30T10:15:49.690Z,36.90
2019-03-30T10:18:18.095Z,35.30
2019-03-30T10:20:46.494Z,34.50
2019-03-30T10:23:14.899Z,33.80
2019-03-30T10:25:43.298Z,33.30
2019-03-30T10:28:11.711Z,32.60
2019-03-30T10:30:40.118Z,32.00
2019-03-30T10:33:08.527Z,32.70
2019-03-30T10:35:36.950Z,33.30
2019-03-30T10:40:33.543Z,33.90
2019-03-30T10:43:02.167Z,34.40
2019-03-30T10:45:30.570Z,35.20
2019-03-30T10:47:58.978Z,35.30
2019-03-30T10:50:27.397Z,36.30
2019-03-30T10:52:55.802Z,36.90
2019-03-30T10:55:24.231Z,37.20
2019-03-30T10:57:52.752Z,37.90
2019-03-30T11:00:36.253Z,38.50
2019-03-30T11:03:04.826Z,38.60
2019-03-30T11:05:33.344Z,38.90
2019-03-30T11:08:01.775Z,39.40
2019-03-30T11:10:30.194Z,40.00
2019-03-30T11:12:58.626Z,42.00
2019-03-30T11:15:27.284Z,43.50
2019-03-30T11:17:55.696Z,41.80
2019-03-30T11:20:24.122Z,42.10
2019-03-30T11:22:52.556Z,43.00
2019-03-30T11:25:21.013Z,42.50
2019-03-30T11:27:49.418Z,43.30
2019-03-30T11:30:17.802Z,43.10
2019-03-30T11:32:46.239Z,43.90
2019-03-30T11:35:14.647Z,44.80
2019-03-30T11:37:43.297Z,45.80
2019-03-30T11:40:11.776Z,44.80
2019-03-30T11:42:40.179Z,44.40
2019-03-30T11:45:09.324Z,44.40
2019-03-30T11:47:37.748Z,45.10
2019-03-30T11:50:06.998Z,46.10
2019-03-30T11:52:35.413Z,44.90
2019-03-30T11:55:05.963Z,44.90
2019-03-30T11:57:34.374Z,46.70
2019-03-30T12:00:03.255Z,45.20
2019-03-30T12:02:31.662Z,44.80
2019-03-30T12:05:00.231Z,46.30
2019-03-30T12:07:28.770Z,45.70
2019-03-30T12:09:57.174Z,45.80
2019-03-30T12:12:25.598Z,46.50
2019-03-30T12:14:54.006Z,46.00
2019-03-30T12:17:22.407Z,47.30
2019-03-30T12:19:50.818Z,48.60
2019-03-30T12:22:19.225Z,47.30
2019-03-30T12:24:47.631Z,47.20
2019-03-30T12:27:16.054Z,48.10
2019-03-30T12:29:44.797Z,47.00
2019-03-30T12:32:13.337Z,47.60
2019-03-30T12:34:41.763Z,47.90
2019-03-30T12:37:10.168Z,47.30
2019-03-30T12:39:38.568Z,46.60
2019-03-30T12:42:07.217Z,47.40
2019-03-30T12:44:35.622Z,46.60
2019-03-30T12:47:04.088Z,46.90
2019-03-30T12:49:32.526Z,46.30
2019-03-30T12:52:01.181Z,47.20
2019-03-30T12:54:29.588Z,48.30
2019-03-30T12:56:58.009Z,48.70
2019-03-30T12:59:26.426Z,46.30
2019-03-30T13:01:54.810Z,46.50
2019-03-30T13:04:23.242Z,46.70
2019-03-30T13:06:51.676Z,47.30
2019-03-30T13:09:20.076Z,47.00
2019-03-30T13:11:48.505Z,46.00
2019-03-30T13:14:16.943Z,46.20
2019-03-30T13:16:45.342Z,46.90
2019-03-30T13:19:13.750Z,47.70
2019-03-30T13:21:52.446Z,47.80
2019-03-30T13:24:12.318Z,48.30
2019-03-30T13:26:40.720Z,48.20
2019-03-30T13:29:09.126Z,48.50
2019-03-30T13:31:37.570Z,48.60
2019-03-30T13:34:05.970Z,49.20
2019-03-30T13:36:41.048Z,48.20
2019-03-30T13:39:09.915Z,48.00
2019-03-30T13:41:38.509Z,47.40
2019-03-30T13:44:07.070Z,46.70
2019-03-30T13:46:35.556Z,47.20
2019-03-30T13:49:04.019Z,45.90
2019-03-30T13:51:32.425Z,46.20
2019-03-30T13:54:00.973Z,47.20
2019-03-30T13:56:29.363Z,47.40
2019-03-30T13:58:57.764Z,48.10
2019-03-30T14:01:26.414Z,47.90
2019-03-30T14:03:55.082Z,47.30
2019-03-30T14:06:23.482Z,46.90
2019-03-30T14:08:51.890Z,47.80
2019-03-30T14:11:20.538Z,48.60
2019-03-30T14:13:48.942Z,47.90
2019-03-30T14:16:17.358Z,48.30
2019-03-30T14:18:45.766Z,47.60
2019-03-30T14:21:14.170Z,47.90
2019-03-30T14:23:43.547Z,47.60
2019-03-30T14:26:12.222Z,47.90
2019-03-30T14:28:40.622Z,48.40
2019-03-30T14:31:09.066Z,48.70
2019-03-30T14:33:37.536Z,50.30
2019-03-30T14:36:05.943Z,52.00
2019-03-30T14:38:34.362Z,52.00
2019-03-30T14:41:03.941Z,50.90
2019-03-30T14:43:32.535Z,51.30
2019-03-30T14:46:01.254Z,52.00
2019-03-30T14:48:30.079Z,51.50
2019-03-30T14:50:58.464Z,50.70
2019-03-30T14:53:27.074Z,49.50
2019-03-30T14:55:55.457Z,48.00
2019-03-30T14:58:23.853Z,49.00
2019-03-30T15:00:52.266Z,48.90
2019-03-30T15:03:20.674Z,49.30
2019-03-30T15:05:49.067Z,51.40
2019-03-30T15:08:17.479Z,51.10
2019-03-30T15:10:45.906Z,51.50
2019-03-30T15:13:14.303Z,52.00
2019-03-30T15:15:42.843Z,50.60
2019-03-30T15:18:11.275Z,49.80
2019-03-30T15:20:39.679Z,50.50
2019-03-30T15:23:08.154Z,50.80
2019-03-30T15:25:36.574Z,51.20
2019-03-30T15:28:04.954Z,50.90
2019-03-30T15:30:33.368Z,51.70
2019-03-30T15:33:03.405Z,51.10
2019-03-30T15:35:32.119Z,51.20
2019-03-30T15:38:00.519Z,51.30
2019-03-30T15:40:28.919Z,50.70
2019-03-30T15:42:57.339Z,51.90
2019-03-30T15:45:25.739Z,51.30
2019-03-30T15:47:54.143Z,51.80
2019-03-30T15:50:22.619Z,51.40
2019-03-30T15:52:51.022Z,52.20
2019-03-30T15:55:19.494Z,52.10
2019-03-30T15:57:47.898Z,52.30
2019-03-30T16:00:17.043Z,52.60
2019-03-30T16:02:45.527Z,52.30
2019-03-30T16:05:15.793Z,51.80
2019-03-30T16:07:44.338Z,52.60
2019-03-30T16:10:13.118Z,54.30
2019-03-30T16:12:41.514Z,54.60
2019-03-30T16:15:10.595Z,55.10
2019-03-30T16:17:39.303Z,56.40
2019-03-30T16:20:08.570Z,57.10
2019-03-30T16:22:36.974Z,57.80
2019-03-30T16:25:06.909Z,59.10
2019-03-30T16:27:38.877Z,58.90
2019-03-30T16:30:06.951Z,59.50
2019-03-30T16:32:35.358Z,59.90
2019-03-30T16:35:03.937Z,60.80
2019-03-30T16:37:32.342Z,61.00
2019-03-30T16:40:00.761Z,60.00
2019-03-30T16:42:29.158Z,61.00
2019-03-30T16:44:57.633Z,61.70
2019-03-30T16:47:26.038Z,63.20
2019-03-30T16:49:54.447Z,62.70
2019-03-30T16:52:22.898Z,63.10
2019-03-30T16:54:51.306Z,63.90
2019-03-30T16:59:47.791Z,65.50
2019-03-30T17:02:16.205Z,65.30
2019-03-30T17:04:44.611Z,66.20
2019-03-30T17:07:13.012Z,64.80
2019-03-30T17:09:41.422Z,65.40
2019-03-30T17:12:10.066Z,66.30
2019-03-30T17:14:38.466Z,67.30
2019-03-30T17:17:06.974Z,68.80
2019-03-30T17:19:35.378Z,70.70
2019-03-30T17:22:03.793Z,70.40
2019-03-30T17:24:32.197Z,69.40
2019-03-30T17:27:00.606Z,68.80
2019-03-30T17:29:29.010Z,69.70
2019-03-30T17:31:57.421Z,70.70
2019-03-30T17:34:26.118Z,70.40
2019-03-30T17:36:54.534Z,70.60
2019-03-30T17:39:23.003Z,71.90
2019-03-30T17:41:51.422Z,71.60
2019-03-30T17:44:19.828Z,71.60
2019-03-30T17:46:48.235Z,72.00
2019-03-30T17:49:16.632Z,72.00
2019-03-30T17:51:45.037Z,71.80
2019-03-30T17:54:13.462Z,72.60
2019-03-30T17:56:41.879Z,72.70
2019-03-30T17:59:10.286Z,73.10
2019-03-30T18:01:38.720Z,72.80
2019-03-30T18:04:07.110Z,73.20
2019-03-30T18:06:35.515Z,74.00
2019-03-30T18:09:05.206Z,75.60
2019-03-30T18:11:33.622Z,76.20
2019-03-30T18:14:02.034Z,77.00
2019-03-30T18:16:30.451Z,78.30
2019-03-30T18:18:59.069Z,78.30
2019-03-30T18:21:27.476Z,78.40
2019-03-30T18:23:55.952Z,78.60
2019-03-30T18:26:24.379Z,78.60
2019-03-30T18:28:52.786Z,79.20
2019-03-30T18:31:21.269Z,79.40
2019-03-30T18:33:49.782Z,79.00
2019-03-30T18:36:19.111Z,80.40
2019-03-30T18:38:49.660Z,80.80
2019-03-30T18:41:18.183Z,82.00
2019-03-30T18:43:46.929Z,81.10
2019-03-30T18:46:15.566Z,82.20
2019-03-30T18:48:43.984Z,82.30
2019-03-30T18:51:12.387Z,80.30
2019-03-30T18:53:41.235Z,82.40
2019-03-30T18:56:09.647Z,83.60
2019-03-30T18:58:41.908Z,85.00
2019-03-30T19:01:08.186Z,85.60
2019-03-30T19:03:36.830Z,87.00
2019-03-30T19:06:05.305Z,88.10
2019-03-30T19:08:34.726Z,88.70
2019-03-30T19:11:03.218Z,88.80
2019-03-30T19:13:31.630Z,89.30
2019-03-30T19:16:00.034Z,89.90
2019-03-30T19:18:28.453Z,90.10
2019-03-30T19:20:56.862Z,90.80
2019-03-30T19:23:26.155Z,91.10
2019-03-30T19:25:54.566Z,91.70
2019-03-30T19:28:22.970Z,92.10
2019-03-30T19:30:51.380Z,92.30
2019-03-30T19:33:19.810Z,92.50
2019-03-30T19:35:48.222Z,92.50
2019-03-30T19:38:16.618Z,92.90
2019-03-30T19:40:45.194Z,93.10
2019-03-30T19:43:13.606Z,93.40
2019-03-30T19:45:42.016Z,93.40
2019-03-30T19:48:10.419Z,93.10
2019-03-30T19:50:38.855Z,93.30
2019-03-30T19:53:07.398Z,94.10
2019-03-30T19:55:35.879Z,93.90
2019-03-30T19:58:04.515Z,93.90
2019-03-30T20:00:32.931Z,94.50
2019-03-30T20:03:01.422Z,94.50
2019-03-30T20:05:29.843Z,94.30
2019-03-30T20:08:11.536Z,94.70
2019-03-30T20:10:28.387Z,94.10
2019-03-30T20:12:56.815Z,94.60
2019-03-30T20:15:25.222Z,93.90
2019-03-30T20:17:53.638Z,94.30
2019-03-30T20:20:22.069Z,95.70
2019-03-30T20:22:50.471Z,95.10
2019-03-30T20:25:18.950Z,94.60
2019-03-30T20:27:47.450Z,94.40
2019-03-30T20:30:15.995Z,94.90
2019-03-30T20:32:44.403Z,93.50
2019-03-30T20:35:12.957Z,94.60
2019-03-30T20:37:41.363Z,95.00
2019-03-30T20:40:10.416Z,93.90
2019-03-30T20:42:38.835Z,93.60
2019-03-30T20:45:07.786Z,94.20
2019-03-30T20:47:36.193Z,94.20
2019-03-30T20:50:06.350Z,94.20
2019-03-30T20:52:34.761Z,94.70
2019-03-30T20:55:03.806Z,94.80
2019-03-30T20:57:32.236Z,95.20
2019-03-30T21:00:00.634Z,95.20
2019-03-30T21:02:29.040Z,94.90
2019-03-30T21:04:57.463Z,95.80
2019-03-30T21:07:25.870Z,95.70
2019-03-30T21:09:54.281Z,95.70
2019-03-30T21:12:22.691Z,96.20
2019-03-30T21:14:51.098Z,96.50
2019-03-30T21:17:19.506Z,97.00
2019-03-30T21:19:47.934Z,97.10
2019-03-30T21:22:16.350Z,97.10
2019-03-30T21:24:44.762Z,96.90
2019-03-30T21:27:13.174Z,97.00
2019-03-30T21:29:54.081Z,96.70
2019-03-30T21:32:11.727Z,95.00
2019-03-30T21:34:40.134Z,96.00
2019-03-30T21:37:08.538Z,95.60
2019-03-30T21:39:36.946Z,96.90
2019-03-30T21:42:05.357Z,96.90
2019-03-30T21:44:33.826Z,97.90
2019-03-30T21:47:02.235Z,98.00
2019-03-30T21:49:31.115Z,97.50
2019-03-30T21:51:59.702Z,97.30
2019-03-30T21:54:28.108Z,97.80
2019-03-30T21:56:56.516Z,98.50
2019-03-30T21:59:25.000Z,99.90
2019-03-30T22:01:53.402Z,99.90
2019-03-30T22:04:21.835Z,99.90
2019-03-30T22:06:50.318Z,99.90
2019-03-30T22:09:18.729Z,99.90
2019-03-30T22:11:47.498Z,99.90
2019-03-30T22:14:15.905Z,99.90
2019-03-30T22:16:44.302Z,99.90
2019-03-30T22:19:12.766Z,99.90
2019-03-30T22:21:41.167Z,99.90
2019-03-30T22:24:09.849Z,99.90
2019-03-30T22:26:38.258Z,99.90
2019-03-30T22:29:06.658Z,99.90
2019-03-30T22:31:35.075Z,99.90
2019-03-30T22:34:03.504Z,99.90
2019-03-30T22:36:32.039Z,99.90
2019-03-30T22:39:00.447Z,99.90
2019-03-30T22:41:28.853Z,99.90
2019-03-30T22:43:57.270Z,99.90
2019-03-30T22:46:25.682Z,99.90
2019-03-30T22:48:54.098Z,99.90
2019-03-30T22:51:22.513Z,99.90
2019-03-30T22:53:50.922Z,99.90
2019-03-30T22:56:19.326Z,99.90
2019-03-30T22:58:47.806Z,99.90
2019-03-30T23:01:18.159Z,99.90
2019-03-30T23:03:46.632Z,99.90
2019-03-30T23:06:15.046Z,99.90
2019-03-30T23:08:43.478Z,99.90
2019-03-30T23:11:11.908Z,99.90
2019-03-30T23:13:40.318Z,99.90
2019-03-30T23:16:08.718Z,99.90
2019-03-30T23:18:37.191Z,99.90
2019-03-30T23:21:05.643Z,99.90
2019-03-30T23:23:34.094Z,99.90
2019-03-30T23:26:02.499Z,99.90
2019-03-30T23:28:30.918Z,99.90
2019-03-30T23:30:59.338Z,99.90
2019-03-30T23:33:27.747Z,99.90
2019-03-30T23:35:56.554Z,99.90
2019-03-30T23:38:25.247Z,99.90
2019-03-30T23:40:53.658Z,99.90
2019-03-30T23:43:22.084Z,99.90
2019-03-30T23:45:50.806Z,99.90
2019-03-30T23:48:19.205Z,99.90
2019-03-30T23:50:47.700Z,99.90
2019-03-30T23:53:16.094Z,99.90
2019-03-30T23:55:44.503Z,99.90
2019-03-30T23:58:13.025Z,99.90
